createdAt,value
2018-07-12T00:00:13.703Z,66.03
2018-07-12T00:02:41.465Z,65.99
2018-07-12T00:05:09.229Z,66.32
2018-07-12T00:07:36.992Z,66.35
2018-07-12T00:10:04.750Z,66.82
2018-07-12T00:12:32.313Z,70.07
2018-07-12T00:15:00.088Z,70.08
2018-07-12T00:17:27.851Z,70.20
2018-07-12T00:19:55.712Z,69.05
2018-07-12T00:22:23.478Z,68.94
2018-07-12T00:24:51.346Z,70.17
2018-07-12T00:27:19.109Z,68.79
2018-07-12T00:29:46.871Z,67.07
2018-07-12T00:32:14.636Z,68.70
2018-07-12T00:34:42.404Z,67.45
2018-07-12T00:37:10.273Z,67.12
2018-07-12T00:39:38.036Z,66.09
2018-07-12T00:42:06.007Z,66.83
2018-07-12T00:44:33.876Z,65.81
2018-07-12T00:47:02.035Z,67.00
2018-07-12T00:49:29.606Z,66.92
2018-07-12T00:51:57.482Z,66.28
2018-07-12T00:54:25.129Z,66.99
2018-07-12T00:56:53.109Z,67.54
2018-07-12T00:59:20.981Z,67.62
2018-07-12T01:01:48.840Z,67.60
2018-07-12T01:04:16.706Z,66.35
2018-07-12T01:06:44.573Z,66.64
2018-07-12T01:09:12.325Z,67.38
2018-07-12T01:11:40.002Z,66.97
2018-07-12T01:14:07.868Z,66.34
2018-07-12T01:16:35.735Z,67.13
2018-07-12T01:19:03.396Z,66.83
2018-07-12T01:21:31.225Z,65.88
2018-07-12T01:23:59.028Z,66.53
2018-07-12T01:26:26.790Z,65.90
2018-07-12T01:28:54.457Z,66.29
2018-07-12T01:31:22.322Z,66.37
2018-07-12T01:33:50.085Z,66.88
2018-07-12T01:36:17.954Z,66.28
2018-07-12T01:38:45.568Z,67.06
2018-07-12T01:41:13.335Z,67.47
2018-07-12T01:43:41.041Z,67.67
2018-07-12T01:46:08.908Z,67.78
2018-07-12T01:48:36.636Z,67.81
2018-07-12T01:51:04.354Z,68.07
2018-07-12T01:53:32.155Z,67.93
2018-07-12T01:56:00.080Z,67.95
2018-07-12T01:58:27.793Z,67.51
2018-07-12T02:00:55.598Z,66.90
2018-07-12T02:03:23.363Z,65.98
2018-07-12T02:05:51.231Z,66.35
2018-07-12T02:08:19.099Z,66.19
2018-07-12T02:10:46.866Z,65.75
2018-07-12T02:13:14.627Z,66.05
2018-07-12T02:15:42.291Z,65.96
2018-07-12T02:18:10.054Z,65.38
2018-07-12T02:20:37.818Z,65.65
2018-07-12T02:23:05.582Z,65.71
2018-07-12T02:25:33.358Z,65.82
2018-07-12T02:28:01.112Z,65.32
2018-07-12T02:30:28.979Z,65.66
2018-07-12T02:32:56.745Z,65.60
2018-07-12T02:35:24.571Z,65.88
2018-07-12T02:37:52.228Z,66.13
2018-07-12T02:40:20.037Z,66.61
2018-07-12T02:42:47.802Z,67.25
2018-07-12T02:45:15.563Z,67.03
2018-07-12T02:47:43.334Z,67.51
2018-07-12T02:50:10.962Z,68.02
2018-07-12T02:52:38.761Z,67.89
2018-07-12T02:55:06.523Z,68.12
2018-07-12T02:57:34.389Z,68.21
2018-07-12T03:00:02.153Z,68.51
2018-07-12T03:02:30.021Z,68.17
2018-07-12T03:04:57.888Z,67.89
2018-07-12T03:07:25.730Z,67.33
2018-07-12T03:09:53.521Z,67.43
2018-07-12T03:12:21.386Z,66.61
2018-07-12T03:14:49.254Z,66.35
2018-07-12T03:17:17.019Z,65.96
2018-07-12T03:19:44.782Z,65.55
2018-07-12T03:22:12.657Z,65.37
2018-07-12T03:24:40.467Z,65.66
2018-07-12T03:27:08.137Z,66.01
2018-07-12T03:29:35.840Z,65.94
2018-07-12T03:32:03.709Z,65.78
2018-07-12T03:34:31.574Z,65.57
2018-07-12T03:36:59.339Z,65.84
2018-07-12T03:39:27.107Z,65.63
2018-07-12T03:41:54.971Z,65.15
2018-07-12T03:44:22.768Z,64.67
2018-07-12T03:46:50.603Z,64.96
2018-07-12T03:49:18.174Z,65.40
2018-07-12T03:51:46.030Z,66.62
2018-07-12T03:54:13.693Z,68.79
2018-07-12T03:56:41.666Z,68.50
2018-07-12T03:59:09.533Z,67.77
2018-07-12T04:01:37.397Z,67.03
2018-07-12T04:04:05.058Z,66.94
2018-07-12T04:06:32.879Z,66.07
2018-07-12T04:09:00.590Z,65.83
2018-07-12T04:11:28.427Z,65.72
2018-07-12T04:13:56.114Z,66.01
2018-07-12T04:16:23.988Z,65.70
2018-07-12T04:18:51.748Z,64.71
2018-07-12T04:21:19.612Z,64.91
2018-07-12T04:23:47.381Z,63.92
2018-07-12T04:26:15.245Z,64.07
2018-07-12T04:28:42.855Z,65.58
2018-07-12T04:31:10.679Z,65.35
2018-07-12T04:33:38.467Z,64.49
2018-07-12T04:36:06.234Z,62.96
2018-07-12T04:38:33.895Z,62.83
2018-07-12T04:41:01.715Z,61.82
2018-07-12T04:43:29.423Z,62.69
2018-07-12T04:45:57.199Z,63.74
2018-07-12T04:48:25.129Z,64.10
2018-07-12T04:50:52.999Z,64.37
2018-07-12T04:53:20.758Z,64.91
2018-07-12T04:55:48.640Z,65.39
2018-07-12T04:58:16.592Z,64.70
2018-07-12T05:00:44.300Z,63.45
2018-07-12T05:03:12.119Z,64.24
2018-07-12T05:05:39.784Z,63.55
2018-07-12T05:08:07.617Z,63.42
2018-07-12T05:10:35.417Z,63.53
2018-07-12T05:13:03.112Z,63.51
2018-07-12T05:15:30.848Z,63.37
2018-07-12T05:17:58.667Z,63.27
2018-07-12T05:20:26.479Z,63.10
2018-07-12T05:22:54.200Z,63.81
2018-07-12T05:25:21.915Z,63.74
2018-07-12T05:27:49.876Z,63.70
2018-07-12T05:30:17.663Z,63.97
2018-07-12T05:32:45.503Z,63.50
2018-07-12T05:35:13.268Z,63.31
2018-07-12T05:37:42.819Z,63.22
2018-07-12T05:40:12.033Z,63.64
2018-07-12T05:42:41.388Z,63.20
2018-07-12T05:45:10.659Z,63.76
2018-07-12T05:47:39.976Z,62.90
2018-07-12T05:50:09.227Z,62.43
2018-07-12T05:52:38.499Z,62.54
2018-07-12T05:55:07.876Z,63.06
2018-07-12T05:57:37.394Z,62.88
2018-07-12T06:00:07.071Z,62.89
2018-07-12T06:02:36.428Z,62.51
2018-07-12T06:05:05.698Z,60.96
2018-07-12T06:07:35.134Z,61.17
2018-07-12T06:10:04.362Z,61.36
2018-07-12T06:12:33.714Z,59.64
2018-07-12T06:15:03.106Z,60.09
2018-07-12T06:17:32.338Z,58.95
2018-07-12T06:20:01.605Z,59.37
2018-07-12T06:22:30.899Z,59.06
2018-07-12T06:25:00.486Z,59.16
2018-07-12T06:27:29.828Z,57.37
2018-07-12T06:29:59.435Z,57.66
2018-07-12T06:32:28.836Z,57.96
2018-07-12T06:34:59.162Z,58.21
2018-07-12T06:37:28.781Z,56.79
2018-07-12T06:39:58.531Z,57.66
2018-07-12T06:42:28.169Z,55.31
2018-07-12T06:44:57.590Z,53.49
2018-07-12T06:47:26.766Z,52.86
2018-07-12T06:49:56.163Z,50.26
2018-07-12T06:52:25.382Z,46.66
2018-07-12T06:54:54.567Z,45.24
2018-07-12T06:57:23.870Z,44.63
2018-07-12T06:59:53.268Z,40.90
2018-07-12T07:02:23.232Z,39.39
2018-07-12T07:04:52.469Z,39.60
2018-07-12T07:07:21.802Z,39.67
2018-07-12T07:09:51.163Z,41.24
2018-07-12T07:12:20.391Z,40.87
2018-07-12T07:14:49.731Z,41.28
2018-07-12T07:17:19.010Z,39.26
2018-07-12T07:19:48.339Z,39.24
2018-07-12T07:22:17.594Z,39.53
2018-07-12T07:24:46.896Z,41.34
2018-07-12T07:27:16.106Z,41.87
2018-07-12T07:29:45.449Z,41.08
2018-07-12T07:32:14.721Z,40.90
2018-07-12T07:34:43.959Z,41.37
2018-07-12T07:37:13.222Z,40.37
2018-07-12T07:39:42.479Z,39.38
2018-07-12T07:42:11.812Z,40.82
2018-07-12T07:44:41.474Z,40.67
2018-07-12T07:47:10.814Z,40.33
2018-07-12T07:49:40.187Z,43.59
2018-07-12T07:52:10.168Z,42.41
2018-07-12T07:54:39.498Z,44.10
2018-07-12T07:57:08.789Z,42.04
2018-07-12T07:59:38.119Z,42.52
2018-07-12T08:02:07.929Z,40.95
2018-07-12T08:04:37.129Z,39.04
2018-07-12T08:07:06.499Z,38.49
2018-07-12T08:09:35.910Z,39.64
2018-07-12T08:12:05.139Z,39.91
2018-07-12T08:14:34.546Z,39.92
2018-07-12T08:17:03.876Z,39.75
2018-07-12T08:19:33.159Z,39.84
2018-07-12T08:22:09.831Z,39.13
2018-07-12T08:24:39.239Z,39.26
2018-07-12T08:27:08.509Z,38.41
2018-07-12T08:29:37.946Z,38.73
2018-07-12T08:32:07.229Z,39.21
2018-07-12T08:34:36.567Z,39.99
2018-07-12T08:37:05.880Z,38.90
2018-07-12T08:39:35.132Z,38.59
2018-07-12T08:42:04.449Z,38.37
2018-07-12T08:44:33.758Z,37.46
2018-07-12T08:47:02.909Z,36.91
2018-07-12T08:49:32.247Z,36.81
2018-07-12T08:52:01.482Z,36.51
2018-07-12T08:54:30.972Z,33.91
2018-07-12T08:57:00.199Z,33.09
2018-07-12T08:59:29.651Z,33.38
2018-07-12T09:01:58.923Z,32.76
2018-07-12T09:04:28.274Z,33.16
2018-07-12T09:06:57.529Z,34.42
2018-07-12T09:09:26.883Z,34.45
2018-07-12T09:11:56.273Z,37.99
2018-07-12T09:14:25.742Z,37.92
2018-07-12T09:16:55.031Z,37.99
2018-07-12T09:19:24.592Z,36.58
2018-07-12T09:21:53.932Z,37.79
2018-07-12T09:24:23.197Z,36.72
2018-07-12T09:26:52.433Z,35.68
2018-07-12T09:29:21.867Z,36.03
2018-07-12T09:31:51.227Z,35.33
2018-07-12T09:34:20.534Z,36.26
2018-07-12T09:36:49.733Z,36.44
2018-07-12T09:39:18.968Z,37.06
2018-07-12T09:41:48.349Z,36.69
2018-07-12T09:44:17.679Z,35.31
2018-07-12T09:46:47.142Z,34.45
2018-07-12T09:49:16.519Z,35.38
2018-07-12T09:51:45.675Z,35.14
2018-07-12T09:54:14.977Z,34.83
2018-07-12T09:56:55.224Z,35.03
2018-07-12T09:59:24.522Z,33.61
2018-07-12T10:01:58.847Z,34.97
2018-07-12T10:04:28.869Z,35.32
2018-07-12T10:07:03.488Z,35.24
2018-07-12T10:09:37.588Z,35.37
2018-07-12T10:12:11.941Z,35.37
2018-07-12T10:14:46.264Z,34.67
2018-07-12T10:17:20.651Z,35.64
2018-07-12T10:19:50.012Z,35.03
2018-07-12T10:22:19.234Z,32.52
2018-07-12T10:24:48.754Z,31.91
2018-07-12T10:27:18.218Z,31.27
2018-07-12T10:29:47.720Z,32.51
2018-07-12T10:32:16.958Z,33.61
2018-07-12T10:34:46.527Z,33.26
2018-07-12T10:37:15.744Z,32.89
2018-07-12T10:39:44.989Z,33.09
2018-07-12T10:42:14.291Z,30.44
2018-07-12T10:44:43.795Z,28.86
2018-07-12T10:47:13.073Z,30.61
2018-07-12T10:49:42.393Z,29.20
2018-07-12T10:52:11.683Z,28.73
2018-07-12T10:54:41.913Z,28.67
2018-07-12T10:57:11.167Z,29.16
2018-07-12T10:59:40.325Z,30.59
2018-07-12T11:02:09.453Z,30.32
2018-07-12T11:04:38.437Z,29.08
2018-07-12T11:07:07.774Z,28.31
2018-07-12T11:09:36.777Z,29.06
2018-07-12T11:12:05.690Z,29.12
2018-07-12T11:14:35.090Z,29.34
2018-07-12T11:17:04.473Z,28.62
2018-07-12T11:19:33.807Z,29.32
2018-07-12T11:22:03.059Z,30.40
2018-07-12T11:24:32.301Z,30.23
2018-07-12T11:27:01.546Z,30.45
2018-07-12T11:29:41.945Z,30.04
2018-07-12T11:32:11.194Z,29.65
2018-07-12T11:34:40.554Z,29.26
2018-07-12T11:37:11.051Z,29.33
2018-07-12T11:39:40.275Z,30.28
2018-07-12T11:42:09.654Z,30.45
2018-07-12T11:44:39.332Z,28.36
2018-07-12T11:47:08.670Z,28.58
2018-07-12T11:49:37.885Z,28.29
2018-07-12T11:52:07.157Z,28.67
2018-07-12T11:54:36.804Z,28.50
2018-07-12T11:57:05.992Z,29.97
2018-07-12T11:59:35.301Z,29.14
2018-07-12T12:02:04.598Z,30.59
2018-07-12T12:04:33.798Z,30.10
2018-07-12T12:07:03.054Z,30.75
2018-07-12T12:09:32.290Z,30.21
2018-07-12T12:12:01.584Z,30.70
2018-07-12T12:14:30.788Z,31.33
2018-07-12T12:17:00.190Z,30.87
2018-07-12T12:19:29.638Z,30.97
2018-07-12T12:21:59.711Z,30.51
2018-07-12T12:24:29.127Z,30.41
2018-07-12T12:26:58.446Z,31.12
2018-07-12T12:29:27.789Z,31.67
2018-07-12T12:31:57.030Z,31.99
2018-07-12T12:34:26.325Z,30.23
2018-07-12T12:36:55.620Z,30.01
2018-07-12T12:39:24.778Z,29.08
2018-07-12T12:41:54.047Z,28.21
2018-07-12T12:44:23.390Z,27.80
2018-07-12T12:46:55.357Z,26.31
2018-07-12T12:49:24.470Z,27.16
2018-07-12T12:51:54.070Z,28.97
2018-07-12T12:54:23.245Z,29.12
2018-07-12T12:56:52.367Z,29.70
2018-07-12T12:59:21.683Z,28.57
2018-07-12T13:01:51.053Z,28.48
2018-07-12T13:04:20.289Z,28.92
2018-07-12T13:06:49.709Z,29.52
2018-07-12T13:09:19.057Z,28.31
2018-07-12T13:11:48.335Z,27.96
2018-07-12T13:14:17.819Z,27.40
2018-07-12T13:16:47.194Z,27.52
2018-07-12T13:19:16.362Z,28.01
2018-07-12T13:21:45.699Z,28.33
2018-07-12T13:24:15.170Z,28.13
2018-07-12T13:26:44.398Z,28.04
2018-07-12T13:29:13.698Z,29.71
2018-07-12T13:31:43.265Z,28.88
2018-07-12T13:34:12.471Z,28.43
2018-07-12T13:36:41.877Z,26.73
2018-07-12T13:39:11.337Z,29.05
2018-07-12T13:41:40.722Z,27.47
2018-07-12T13:44:17.395Z,29.67
2018-07-12T13:46:47.470Z,29.88
2018-07-12T13:49:17.050Z,29.29
2018-07-12T13:51:47.765Z,28.04
2018-07-12T13:54:17.474Z,29.19
2018-07-12T13:56:47.095Z,29.01
2018-07-12T13:59:16.347Z,29.33
2018-07-12T14:01:45.686Z,30.84
2018-07-12T14:04:14.851Z,29.50
2018-07-12T14:06:44.083Z,29.27
2018-07-12T14:09:14.057Z,28.75
2018-07-12T14:11:43.117Z,28.38
2018-07-12T14:14:12.102Z,28.27
2018-07-12T14:16:41.462Z,27.93
2018-07-12T14:19:10.788Z,29.29
2018-07-12T14:21:40.074Z,28.18
2018-07-12T14:24:09.372Z,28.42
2018-07-12T14:26:38.773Z,28.98
2018-07-12T14:29:08.025Z,27.61
2018-07-12T14:31:37.289Z,28.74
2018-07-12T14:34:06.525Z,27.48
2018-07-12T14:36:35.767Z,26.56
2018-07-12T14:39:06.044Z,25.93
2018-07-12T14:41:35.315Z,26.44
2018-07-12T14:44:04.671Z,27.36
2018-07-12T14:46:34.586Z,25.94
2018-07-12T14:49:03.866Z,24.91
2018-07-12T14:51:33.216Z,25.68
2018-07-12T14:54:02.463Z,25.62
2018-07-12T14:56:31.716Z,26.15
2018-07-12T14:59:01.089Z,28.46
2018-07-12T15:01:30.351Z,28.92
2018-07-12T15:03:59.619Z,29.36
2018-07-12T15:06:29.025Z,27.52
2018-07-12T15:08:58.534Z,27.29
2018-07-12T15:11:27.743Z,27.13
2018-07-12T15:13:57.115Z,28.97
2018-07-12T15:16:26.546Z,27.51
2018-07-12T15:18:55.795Z,24.68
2018-07-12T15:21:25.036Z,24.85
2018-07-12T15:23:54.299Z,24.96
2018-07-12T15:26:23.572Z,23.24
2018-07-12T15:28:52.882Z,23.27
2018-07-12T15:31:22.255Z,23.45
2018-07-12T15:33:51.485Z,23.74
2018-07-12T15:36:20.836Z,22.65
2018-07-12T15:38:50.084Z,23.88
2018-07-12T15:41:19.326Z,23.67
2018-07-12T15:43:48.627Z,22.70
2018-07-12T15:46:17.927Z,23.03
2018-07-12T15:48:47.188Z,23.41
2018-07-12T15:51:16.541Z,23.57
2018-07-12T15:53:46.010Z,24.70
2018-07-12T15:56:15.343Z,27.09
2018-07-12T15:58:44.740Z,27.22
2018-07-12T16:01:14.161Z,27.27
2018-07-12T16:03:43.414Z,27.01
2018-07-12T16:06:12.663Z,26.94
2018-07-12T16:08:42.034Z,26.64
2018-07-12T16:11:11.217Z,26.37
2018-07-12T16:13:40.563Z,27.52
2018-07-12T16:16:09.920Z,26.89
2018-07-12T16:18:39.262Z,26.55
2018-07-12T16:21:08.622Z,26.84
2018-07-12T16:23:37.846Z,26.97
2018-07-12T16:26:07.108Z,27.87
2018-07-12T16:28:36.358Z,28.72
2018-07-12T16:31:05.703Z,28.33
2018-07-12T16:33:34.950Z,27.62
2018-07-12T16:36:04.323Z,28.20
2018-07-12T16:38:33.655Z,27.79
2018-07-12T16:41:02.970Z,28.34
2018-07-12T16:43:32.334Z,30.54
2018-07-12T16:46:01.508Z,31.32
2018-07-12T16:48:30.780Z,32.17
2018-07-12T16:51:00.041Z,31.51
2018-07-12T16:53:29.589Z,31.35
2018-07-12T16:55:58.951Z,31.03
2018-07-12T16:58:28.560Z,31.50
2018-07-12T17:00:58.090Z,31.58
2018-07-12T17:03:27.234Z,32.54
2018-07-12T17:05:56.998Z,31.99
2018-07-12T17:08:26.520Z,31.79
2018-07-12T17:10:55.969Z,32.56
2018-07-12T17:13:25.214Z,32.39
2018-07-12T17:15:54.464Z,32.74
2018-07-12T17:18:23.866Z,32.41
2018-07-12T17:20:53.149Z,32.01
2018-07-12T17:23:22.521Z,33.07
2018-07-12T17:25:51.776Z,32.79
2018-07-12T17:28:20.991Z,33.25
2018-07-12T17:30:50.464Z,32.50
2018-07-12T17:33:19.906Z,32.26
2018-07-12T17:35:49.186Z,32.78
2018-07-12T17:38:18.518Z,33.01
2018-07-12T17:40:47.778Z,32.58
2018-07-12T17:43:17.121Z,32.61
2018-07-12T17:45:46.386Z,32.57
2018-07-12T17:48:15.731Z,32.52
2018-07-12T17:50:44.898Z,32.99
2018-07-12T17:53:14.307Z,33.72
2018-07-12T17:55:43.570Z,33.51
2018-07-12T17:58:12.964Z,33.24
2018-07-12T18:00:42.195Z,33.78
2018-07-12T18:03:11.366Z,33.61
2018-07-12T18:05:40.574Z,33.22
2018-07-12T18:08:09.935Z,34.75
2018-07-12T18:10:39.161Z,33.38
2018-07-12T18:13:08.816Z,33.90
2018-07-12T18:15:38.218Z,33.65
2018-07-12T18:18:07.614Z,34.25
2018-07-12T18:20:37.012Z,34.14
2018-07-12T18:23:07.021Z,34.12
2018-07-12T18:25:36.300Z,34.09
2018-07-12T18:28:05.554Z,34.49
2018-07-12T18:30:34.992Z,34.62
2018-07-12T18:33:04.494Z,34.38
2018-07-12T18:35:33.835Z,34.87
2018-07-12T18:38:03.152Z,34.45
2018-07-12T18:40:32.908Z,35.03
2018-07-12T18:43:02.572Z,34.17
2018-07-12T18:45:31.488Z,34.72
2018-07-12T18:48:00.479Z,34.57
2018-07-12T18:50:29.416Z,35.03
2018-07-12T18:52:58.456Z,34.44
2018-07-12T18:55:27.474Z,34.27
2018-07-12T18:57:56.449Z,34.16
2018-07-12T19:00:25.803Z,35.41
2018-07-12T19:02:55.024Z,36.50
2018-07-12T19:05:24.331Z,35.86
2018-07-12T19:07:53.765Z,36.00
2018-07-12T19:10:23.105Z,36.81
2018-07-12T19:12:52.470Z,37.23
2018-07-12T19:15:21.866Z,36.51
2018-07-12T19:17:51.156Z,36.54
2018-07-12T19:20:20.418Z,36.34
2018-07-12T19:22:49.754Z,34.64
2018-07-12T19:25:19.040Z,35.07
2018-07-12T19:27:48.448Z,35.33
2018-07-12T19:30:17.703Z,36.80
2018-07-12T19:32:46.957Z,36.09
2018-07-12T19:35:16.258Z,35.79
2018-07-12T19:37:45.647Z,35.96
2018-07-12T19:40:15.039Z,36.60
2018-07-12T19:42:44.303Z,36.61
2018-07-12T19:45:13.570Z,37.16
2018-07-12T19:47:42.828Z,39.22
2018-07-12T19:50:12.170Z,39.32
2018-07-12T19:52:41.434Z,39.56
2018-07-12T19:55:10.657Z,39.68
2018-07-12T19:57:40.064Z,39.74
2018-07-12T20:00:09.562Z,39.25
2018-07-12T20:02:38.751Z,40.25
2018-07-12T20:05:08.056Z,40.61
2018-07-12T20:07:37.313Z,40.39
2018-07-12T20:10:06.622Z,40.14
2018-07-12T20:12:35.851Z,39.88
2018-07-12T20:15:05.270Z,39.75
2018-07-12T20:17:34.552Z,39.52
2018-07-12T20:20:03.856Z,39.52
2018-07-12T20:22:33.757Z,39.14
2018-07-12T20:25:03.081Z,39.72
2018-07-12T20:27:32.338Z,39.62
2018-07-12T20:30:01.475Z,38.98
2018-07-12T20:32:30.826Z,39.22
2018-07-12T20:35:00.747Z,39.15
2018-07-12T20:37:29.831Z,39.35
2018-07-12T20:39:59.215Z,39.37
2018-07-12T20:42:28.955Z,39.12
2018-07-12T20:44:58.226Z,38.75
2018-07-12T20:47:27.494Z,39.16
2018-07-12T20:49:56.896Z,39.19
2018-07-12T20:52:26.256Z,38.97
2018-07-12T20:54:55.670Z,39.17
2018-07-12T20:57:25.016Z,39.35
2018-07-12T20:59:54.154Z,39.75
2018-07-12T21:02:23.527Z,39.67
2018-07-12T21:04:52.677Z,40.13
2018-07-12T21:07:21.921Z,40.49
2018-07-12T21:09:51.166Z,40.63
2018-07-12T21:12:20.388Z,40.55
2018-07-12T21:14:49.756Z,40.79
2018-07-12T21:17:19.875Z,40.89
2018-07-12T21:19:49.197Z,41.91
2018-07-12T21:22:18.443Z,42.93
2018-07-12T21:24:47.700Z,43.84
2018-07-12T21:27:17.007Z,45.01
2018-07-12T21:29:46.411Z,44.97
2018-07-12T21:32:15.626Z,45.02
2018-07-12T21:34:44.914Z,44.60
2018-07-12T21:37:14.278Z,44.82
2018-07-12T21:39:43.630Z,45.13
2018-07-12T21:42:12.901Z,44.70
2018-07-12T21:44:42.540Z,45.35
2018-07-12T21:47:11.935Z,45.26
2018-07-12T21:49:41.233Z,45.51
2018-07-12T21:52:10.524Z,46.03
2018-07-12T21:54:39.872Z,49.93
2018-07-12T21:57:09.108Z,55.26
2018-07-12T21:59:38.342Z,53.33
2018-07-12T22:02:07.604Z,51.04
2018-07-12T22:04:36.854Z,49.13
2018-07-12T22:08:19.462Z,48.66
2018-07-12T22:10:49.892Z,47.87
2018-07-12T22:13:19.726Z,48.01
2018-07-12T22:15:49.034Z,47.59
2018-07-12T22:18:18.376Z,47.45
2018-07-12T22:20:47.594Z,47.42
2018-07-12T22:23:17.240Z,47.26
2018-07-12T22:25:46.651Z,48.32
2018-07-12T22:28:16.402Z,51.38
2018-07-12T22:30:45.749Z,51.41
2018-07-12T22:33:15.088Z,50.73
2018-07-12T22:35:44.447Z,49.97
2018-07-12T22:38:13.816Z,49.14
2018-07-12T22:40:43.094Z,49.51
2018-07-12T22:43:12.218Z,49.28
2018-07-12T22:45:41.706Z,49.09
2018-07-12T22:48:11.095Z,49.15
2018-07-12T22:50:40.371Z,49.18
2018-07-12T22:53:10.157Z,49.07
2018-07-12T22:55:40.065Z,48.26
2018-07-12T22:58:09.335Z,48.48
2018-07-12T23:00:38.883Z,48.22
2018-07-12T23:03:08.243Z,48.02
2018-07-12T23:05:37.626Z,47.93
2018-07-12T23:08:06.971Z,48.44
2018-07-12T23:10:36.323Z,48.39
2018-07-12T23:13:05.594Z,48.42
2018-07-12T23:15:34.875Z,48.49
2018-07-12T23:18:04.311Z,48.46
2018-07-12T23:20:33.695Z,48.69
2018-07-12T23:23:03.012Z,48.47
2018-07-12T23:25:32.318Z,48.97
2018-07-12T23:28:01.614Z,48.92
2018-07-12T23:30:30.866Z,48.89
2018-07-12T23:33:00.103Z,49.04
2018-07-12T23:35:29.366Z,48.64
2018-07-12T23:37:58.790Z,48.78
2018-07-12T23:40:28.069Z,48.72
2018-07-12T23:42:57.465Z,48.72
2018-07-12T23:45:26.769Z,49.76
2018-07-12T23:47:56.093Z,49.96
2018-07-12T23:50:25.396Z,49.44
2018-07-12T23:52:54.791Z,49.80
2018-07-12T23:55:24.175Z,49.50
2018-07-12T23:57:53.406Z,49.93
